sensor_id;sensor_type;location;lat;lon;timestamp;P1;durP1;ratioP1;P2;durP2;ratioP2
19735;SDS011;32064;49.310;8.646;2022-12-10T00:01:24;12.03;;;10.43;;
19735;SDS011;32064;49.310;8.646;2022-12-10T00:03:50;11.50;;;9.87;;
19735;SDS011;32064;49.310;8.646;2022-12-10T00:06:21;13.20;;;10.37;;
19735;SDS011;32064;49.310;8.646;2022-12-10T00:08:48;12.17;;;10.43;;
19735;SDS011;32064;49.310;8.646;2022-12-10T00:11:14;13.10;;;10.70;;
19735;SDS011;32064;49.310;8.646;2022-12-10T00:13:43;14.07;;;10.90;;
19735;SDS011;32064;49.310;8.646;2022-12-10T00:16:10;12.63;;;10.23;;
19735;SDS011;32064;49.310;8.646;2022-12-10T00:18:37;10.93;;;9.77;;
19735;SDS011;32064;49.310;8.646;2022-12-10T00:21:03;12.37;;;10.17;;
19735;SDS011;32064;49.310;8.646;2022-12-10T00:23:30;12.73;;;10.03;;
19735;SDS011;32064;49.310;8.646;2022-12-10T00:26:04;13.13;;;10.33;;
19735;SDS011;32064;49.310;8.646;2022-12-10T00:28:30;13.87;;;10.40;;
19735;SDS011;32064;49.310;8.646;2022-12-10T00:31:01;12.93;;;11.33;;
19735;SDS011;32064;49.310;8.646;2022-12-10T00:33:27;12.43;;;11.13;;
19735;SDS011;32064;49.310;8.646;2022-12-10T00:35:53;13.87;;;11.03;;
19735;SDS011;32064;49.310;8.646;2022-12-10T00:38:18;16.67;;;11.93;;
19735;SDS011;32064;49.310;8.646;2022-12-10T00:40:44;13.47;;;10.83;;
19735;SDS011;32064;49.310;8.646;2022-12-10T00:43:09;13.60;;;11.27;;
19735;SDS011;32064;49.310;8.646;2022-12-10T00:45:34;12.63;;;10.43;;
19735;SDS011;32064;49.310;8.646;2022-12-10T00:48:00;15.30;;;11.80;;
19735;SDS011;32064;49.310;8.646;2022-12-10T00:50:25;14.13;;;12.07;;
19735;SDS011;32064;49.310;8.646;2022-12-10T00:52:50;12.43;;;10.90;;
19735;SDS011;32064;49.310;8.646;2022-12-10T00:55:16;14.47;;;11.60;;
19735;SDS011;32064;49.310;8.646;2022-12-10T00:57:41;13.50;;;11.27;;
19735;SDS011;32064;49.310;8.646;2022-12-10T01:00:07;13.20;;;11.10;;
19735;SDS011;32064;49.310;8.646;2022-12-10T01:02:33;14.40;;;12.07;;
19735;SDS011;32064;49.310;8.646;2022-12-10T01:04:58;14.83;;;11.80;;
19735;SDS011;32064;49.310;8.646;2022-12-10T01:07:24;14.40;;;12.07;;
19735;SDS011;32064;49.310;8.646;2022-12-10T01:09:49;14.23;;;11.40;;
19735;SDS011;32064;49.310;8.646;2022-12-10T01:12:14;16.63;;;12.50;;
19735;SDS011;32064;49.310;8.646;2022-12-10T01:14:40;17.50;;;11.53;;
19735;SDS011;32064;49.310;8.646;2022-12-10T01:17:05;13.03;;;10.67;;
19735;SDS011;32064;49.310;8.646;2022-12-10T01:19:32;13.87;;;11.63;;
19735;SDS011;32064;49.310;8.646;2022-12-10T01:21:58;14.13;;;10.90;;
19735;SDS011;32064;49.310;8.646;2022-12-10T01:24:25;14.13;;;11.40;;
19735;SDS011;32064;49.310;8.646;2022-12-10T01:26:51;13.03;;;11.17;;
19735;SDS011;32064;49.310;8.646;2022-12-10T01:29:17;13.33;;;10.93;;
19735;SDS011;32064;49.310;8.646;2022-12-10T01:31:43;14.23;;;11.93;;
19735;SDS011;32064;49.310;8.646;2022-12-10T01:34:13;12.77;;;10.93;;
19735;SDS011;32064;49.310;8.646;2022-12-10T01:36:39;12.00;;;10.47;;
19735;SDS011;32064;49.310;8.646;2022-12-10T01:39:07;15.23;;;11.47;;
19735;SDS011;32064;49.310;8.646;2022-12-10T01:41:35;14.93;;;10.73;;
19735;SDS011;32064;49.310;8.646;2022-12-10T01:46:35;15.20;;;11.43;;
19735;SDS011;32064;49.310;8.646;2022-12-10T01:49:09;12.67;;;11.03;;
19735;SDS011;32064;49.310;8.646;2022-12-10T01:51:41;13.17;;;11.13;;
19735;SDS011;32064;49.310;8.646;2022-12-10T01:54:10;13.43;;;11.10;;
19735;SDS011;32064;49.310;8.646;2022-12-10T01:56:40;13.70;;;11.57;;
19735;SDS011;32064;49.310;8.646;2022-12-10T01:59:09;14.10;;;11.43;;
19735;SDS011;32064;49.310;8.646;2022-12-10T02:04:25;15.63;;;11.33;;
19735;SDS011;32064;49.310;8.646;2022-12-10T02:07:02;12.33;;;10.90;;
19735;SDS011;32064;49.310;8.646;2022-12-10T02:09:42;15.30;;;11.43;;
19735;SDS011;32064;49.310;8.646;2022-12-10T02:12:15;13.33;;;10.77;;
19735;SDS011;32064;49.310;8.646;2022-12-10T02:15:09;13.50;;;11.17;;
19735;SDS011;32064;49.310;8.646;2022-12-10T02:17:40;14.00;;;10.70;;
19735;SDS011;32064;49.310;8.646;2022-12-10T02:20:15;13.83;;;11.10;;
19735;SDS011;32064;49.310;8.646;2022-12-10T02:22:44;12.40;;;10.93;;
19735;SDS011;32064;49.310;8.646;2022-12-10T02:25:16;12.90;;;10.60;;
19735;SDS011;32064;49.310;8.646;2022-12-10T02:27:48;12.90;;;10.97;;
19735;SDS011;32064;49.310;8.646;2022-12-10T02:30:19;13.00;;;10.10;;
19735;SDS011;32064;49.310;8.646;2022-12-10T02:32:45;13.87;;;11.47;;
19735;SDS011;32064;49.310;8.646;2022-12-10T02:35:25;11.87;;;10.17;;
19735;SDS011;32064;49.310;8.646;2022-12-10T02:38:07;11.93;;;10.63;;
19735;SDS011;32064;49.310;8.646;2022-12-10T02:40:43;12.40;;;10.60;;
19735;SDS011;32064;49.310;8.646;2022-12-10T02:43:11;13.30;;;11.07;;
19735;SDS011;32064;49.310;8.646;2022-12-10T02:45:39;12.70;;;10.90;;
19735;SDS011;32064;49.310;8.646;2022-12-10T02:48:07;12.57;;;10.70;;
19735;SDS011;32064;49.310;8.646;2022-12-10T02:50:34;13.57;;;11.23;;
19735;SDS011;32064;49.310;8.646;2022-12-10T02:52:59;13.33;;;11.40;;
19735;SDS011;32064;49.310;8.646;2022-12-10T02:55:25;13.57;;;11.13;;
19735;SDS011;32064;49.310;8.646;2022-12-10T03:00:54;13.70;;;11.43;;
19735;SDS011;32064;49.310;8.646;2022-12-10T03:06:15;13.57;;;11.13;;
19735;SDS011;32064;49.310;8.646;2022-12-10T03:08:50;12.73;;;10.77;;
19735;SDS011;32064;49.310;8.646;2022-12-10T03:11:20;15.10;;;11.30;;
19735;SDS011;32064;49.310;8.646;2022-12-10T03:16:18;14.33;;;11.43;;
19735;SDS011;32064;49.310;8.646;2022-12-10T03:18:46;14.63;;;12.20;;
19735;SDS011;32064;49.310;8.646;2022-12-10T03:21:14;17.00;;;12.43;;
19735;SDS011;32064;49.310;8.646;2022-12-10T03:23:42;16.37;;;12.37;;
19735;SDS011;32064;49.310;8.646;2022-12-10T03:26:10;13.10;;;11.30;;
19735;SDS011;32064;49.310;8.646;2022-12-10T03:28:45;16.93;;;12.63;;
19735;SDS011;32064;49.310;8.646;2022-12-10T03:31:15;14.27;;;11.63;;
19735;SDS011;32064;49.310;8.646;2022-12-10T03:33:43;16.10;;;12.87;;
19735;SDS011;32064;49.310;8.646;2022-12-10T03:36:12;15.20;;;12.17;;
19735;SDS011;32064;49.310;8.646;2022-12-10T03:38:38;15.77;;;12.33;;
19735;SDS011;32064;49.310;8.646;2022-12-10T03:41:05;15.10;;;11.83;;
19735;SDS011;32064;49.310;8.646;2022-12-10T03:43:31;14.13;;;12.23;;
19735;SDS011;32064;49.310;8.646;2022-12-10T03:45:56;16.27;;;12.90;;
19735;SDS011;32064;49.310;8.646;2022-12-10T03:48:21;15.70;;;12.63;;
19735;SDS011;32064;49.310;8.646;2022-12-10T03:50:47;16.77;;;12.90;;
19735;SDS011;32064;49.310;8.646;2022-12-10T03:53:12;14.53;;;12.47;;
19735;SDS011;32064;49.310;8.646;2022-12-10T03:55:38;14.77;;;12.37;;
19735;SDS011;32064;49.310;8.646;2022-12-10T03:58:03;15.73;;;12.07;;
19735;SDS011;32064;49.310;8.646;2022-12-10T04:00:29;17.23;;;13.50;;
19735;SDS011;32064;49.310;8.646;2022-12-10T04:02:54;14.37;;;12.10;;
19735;SDS011;32064;49.310;8.646;2022-12-10T04:05:19;17.13;;;12.07;;
19735;SDS011;32064;49.310;8.646;2022-12-10T04:07:45;13.63;;;12.20;;
19735;SDS011;32064;49.310;8.646;2022-12-10T04:10:10;13.73;;;11.93;;
19735;SDS011;32064;49.310;8.646;2022-12-10T04:12:36;15.37;;;12.83;;
19735;SDS011;32064;49.310;8.646;2022-12-10T04:15:01;15.47;;;13.03;;
19735;SDS011;32064;49.310;8.646;2022-12-10T04:18:05;14.43;;;12.57;;
19735;SDS011;32064;49.310;8.646;2022-12-10T04:20:30;14.70;;;13.10;;
19735;SDS011;32064;49.310;8.646;2022-12-10T04:23:15;16.83;;;12.13;;
19735;SDS011;32064;49.310;8.646;2022-12-10T04:25:59;15.80;;;13.13;;
19735;SDS011;32064;49.310;8.646;2022-12-10T04:28:43;17.33;;;13.60;;
19735;SDS011;32064;49.310;8.646;2022-12-10T04:31:08;15.87;;;13.60;;
19735;SDS011;32064;49.310;8.646;2022-12-10T04:33:33;18.33;;;13.23;;
19735;SDS011;32064;49.310;8.646;2022-12-10T04:35:59;14.57;;;12.57;;
19735;SDS011;32064;49.310;8.646;2022-12-10T04:38:24;18.53;;;14.37;;
19735;SDS011;32064;49.310;8.646;2022-12-10T04:40:50;15.03;;;13.17;;
19735;SDS011;32064;49.310;8.646;2022-12-10T04:43:15;21.07;;;13.73;;
19735;SDS011;32064;49.310;8.646;2022-12-10T04:45:40;16.03;;;13.27;;
19735;SDS011;32064;49.310;8.646;2022-12-10T04:48:06;17.53;;;13.90;;
19735;SDS011;32064;49.310;8.646;2022-12-10T04:50:31;16.37;;;12.90;;
19735;SDS011;32064;49.310;8.646;2022-12-10T04:52:56;14.60;;;12.53;;
19735;SDS011;32064;49.310;8.646;2022-12-10T04:55:22;17.33;;;13.73;;
19735;SDS011;32064;49.310;8.646;2022-12-10T04:57:47;16.00;;;13.50;;
19735;SDS011;32064;49.310;8.646;2022-12-10T05:00:13;15.70;;;13.13;;
19735;SDS011;32064;49.310;8.646;2022-12-10T05:02:38;18.23;;;13.73;;
19735;SDS011;32064;49.310;8.646;2022-12-10T05:05:04;18.83;;;13.93;;
19735;SDS011;32064;49.310;8.646;2022-12-10T05:07:29;17.97;;;13.87;;
19735;SDS011;32064;49.310;8.646;2022-12-10T05:09:55;17.60;;;13.60;;
19735;SDS011;32064;49.310;8.646;2022-12-10T05:12:20;18.30;;;14.07;;
19735;SDS011;32064;49.310;8.646;2022-12-10T05:14:46;17.80;;;13.77;;
19735;SDS011;32064;49.310;8.646;2022-12-10T05:17:11;19.10;;;14.10;;
19735;SDS011;32064;49.310;8.646;2022-12-10T05:19:36;17.00;;;13.97;;
19735;SDS011;32064;49.310;8.646;2022-12-10T05:22:02;18.33;;;13.83;;
19735;SDS011;32064;49.310;8.646;2022-12-10T05:24:46;18.13;;;14.10;;
19735;SDS011;32064;49.310;8.646;2022-12-10T05:27:11;16.13;;;13.13;;
19735;SDS011;32064;49.310;8.646;2022-12-10T05:29:37;15.70;;;13.37;;
19735;SDS011;32064;49.310;8.646;2022-12-10T05:32:02;19.23;;;13.73;;
19735;SDS011;32064;49.310;8.646;2022-12-10T05:34:28;18.60;;;14.70;;
19735;SDS011;32064;49.310;8.646;2022-12-10T05:36:54;17.20;;;14.20;;
19735;SDS011;32064;49.310;8.646;2022-12-10T05:39:19;18.47;;;14.10;;
19735;SDS011;32064;49.310;8.646;2022-12-10T05:41:44;17.07;;;13.83;;
19735;SDS011;32064;49.310;8.646;2022-12-10T05:44:10;18.13;;;13.87;;
19735;SDS011;32064;49.310;8.646;2022-12-10T05:46:36;20.17;;;14.30;;
19735;SDS011;32064;49.310;8.646;2022-12-10T05:49:03;15.93;;;14.23;;
19735;SDS011;32064;49.310;8.646;2022-12-10T05:51:31;18.20;;;14.73;;
19735;SDS011;32064;49.310;8.646;2022-12-10T05:53:58;16.23;;;13.53;;
19735;SDS011;32064;49.310;8.646;2022-12-10T05:56:25;16.70;;;13.43;;
19735;SDS011;32064;49.310;8.646;2022-12-10T05:58:52;18.47;;;15.07;;
19735;SDS011;32064;49.310;8.646;2022-12-10T06:01:20;18.67;;;14.30;;
19735;SDS011;32064;49.310;8.646;2022-12-10T06:03:48;17.63;;;14.07;;
19735;SDS011;32064;49.310;8.646;2022-12-10T06:06:24;17.87;;;15.10;;
19735;SDS011;32064;49.310;8.646;2022-12-10T06:08:55;18.73;;;15.33;;
19735;SDS011;32064;49.310;8.646;2022-12-10T06:11:21;18.03;;;14.83;;
19735;SDS011;32064;49.310;8.646;2022-12-10T06:13:47;20.20;;;14.53;;
19735;SDS011;32064;49.310;8.646;2022-12-10T06:16:13;18.50;;;14.83;;
19735;SDS011;32064;49.310;8.646;2022-12-10T06:18:39;17.13;;;14.17;;
19735;SDS011;32064;49.310;8.646;2022-12-10T06:21:05;17.70;;;14.80;;
19735;SDS011;32064;49.310;8.646;2022-12-10T06:23:35;21.03;;;14.07;;
19735;SDS011;32064;49.310;8.646;2022-12-10T06:26:05;16.67;;;14.10;;
19735;SDS011;32064;49.310;8.646;2022-12-10T06:28:36;18.07;;;14.40;;
19735;SDS011;32064;49.310;8.646;2022-12-10T06:31:01;19.00;;;14.90;;
19735;SDS011;32064;49.310;8.646;2022-12-10T06:33:27;16.60;;;13.77;;
19735;SDS011;32064;49.310;8.646;2022-12-10T06:35:52;18.70;;;15.00;;
19735;SDS011;32064;49.310;8.646;2022-12-10T06:38:18;17.83;;;14.30;;
19735;SDS011;32064;49.310;8.646;2022-12-10T06:40:43;17.23;;;14.37;;
19735;SDS011;32064;49.310;8.646;2022-12-10T06:43:09;17.53;;;14.87;;
19735;SDS011;32064;49.310;8.646;2022-12-10T06:45:37;20.47;;;14.83;;
19735;SDS011;32064;49.310;8.646;2022-12-10T06:48:04;16.87;;;14.67;;
19735;SDS011;32064;49.310;8.646;2022-12-10T06:50:29;16.50;;;14.07;;
19735;SDS011;32064;49.310;8.646;2022-12-10T06:52:55;17.57;;;14.50;;
19735;SDS011;32064;49.310;8.646;2022-12-10T06:55:21;19.30;;;14.00;;
19735;SDS011;32064;49.310;8.646;2022-12-10T06:57:46;19.73;;;15.20;;
19735;SDS011;32064;49.310;8.646;2022-12-10T07:00:12;20.03;;;14.87;;
19735;SDS011;32064;49.310;8.646;2022-12-10T07:02:38;19.13;;;15.57;;
19735;SDS011;32064;49.310;8.646;2022-12-10T07:05:03;16.80;;;14.33;;
19735;SDS011;32064;49.310;8.646;2022-12-10T07:07:29;22.37;;;15.17;;
19735;SDS011;32064;49.310;8.646;2022-12-10T07:09:54;18.17;;;14.57;;
19735;SDS011;32064;49.310;8.646;2022-12-10T07:12:20;18.20;;;14.63;;
19735;SDS011;32064;49.310;8.646;2022-12-10T07:14:45;18.03;;;14.57;;
19735;SDS011;32064;49.310;8.646;2022-12-10T07:17:10;17.53;;;14.43;;
19735;SDS011;32064;49.310;8.646;2022-12-10T07:19:36;16.73;;;14.93;;
19735;SDS011;32064;49.310;8.646;2022-12-10T07:22:01;19.90;;;15.07;;
19735;SDS011;32064;49.310;8.646;2022-12-10T07:24:27;19.43;;;14.90;;
19735;SDS011;32064;49.310;8.646;2022-12-10T07:26:52;17.97;;;15.47;;
19735;SDS011;32064;49.310;8.646;2022-12-10T07:29:19;20.10;;;15.07;;
19735;SDS011;32064;49.310;8.646;2022-12-10T07:31:45;16.73;;;13.70;;
19735;SDS011;32064;49.310;8.646;2022-12-10T07:34:13;18.67;;;15.10;;
19735;SDS011;32064;49.310;8.646;2022-12-10T07:36:38;18.37;;;14.53;;
19735;SDS011;32064;49.310;8.646;2022-12-10T07:39:08;18.30;;;14.57;;
19735;SDS011;32064;49.310;8.646;2022-12-10T07:41:34;18.67;;;15.57;;
19735;SDS011;32064;49.310;8.646;2022-12-10T07:44:01;17.50;;;14.40;;
19735;SDS011;32064;49.310;8.646;2022-12-10T07:46:29;16.07;;;14.13;;
19735;SDS011;32064;49.310;8.646;2022-12-10T07:48:56;19.67;;;14.27;;
19735;SDS011;32064;49.310;8.646;2022-12-10T07:51:25;17.90;;;13.90;;
19735;SDS011;32064;49.310;8.646;2022-12-10T07:53:50;17.17;;;13.77;;
19735;SDS011;32064;49.310;8.646;2022-12-10T07:56:17;19.63;;;14.97;;
19735;SDS011;32064;49.310;8.646;2022-12-10T07:58:43;16.53;;;14.13;;
19735;SDS011;32064;49.310;8.646;2022-12-10T08:01:10;17.43;;;14.10;;
19735;SDS011;32064;49.310;8.646;2022-12-10T08:03:37;17.80;;;14.20;;
19735;SDS011;32064;49.310;8.646;2022-12-10T08:06:04;18.20;;;14.73;;
19735;SDS011;32064;49.310;8.646;2022-12-10T08:08:34;16.80;;;13.57;;
19735;SDS011;32064;49.310;8.646;2022-12-10T08:11:00;17.87;;;14.30;;
19735;SDS011;32064;49.310;8.646;2022-12-10T08:13:27;17.53;;;14.97;;
19735;SDS011;32064;49.310;8.646;2022-12-10T08:15:53;17.83;;;14.53;;
19735;SDS011;32064;49.310;8.646;2022-12-10T08:18:19;15.83;;;13.10;;
19735;SDS011;32064;49.310;8.646;2022-12-10T08:20:45;18.60;;;13.37;;
19735;SDS011;32064;49.310;8.646;2022-12-10T08:23:10;15.53;;;13.53;;
19735;SDS011;32064;49.310;8.646;2022-12-10T08:25:36;17.90;;;13.97;;
19735;SDS011;32064;49.310;8.646;2022-12-10T08:28:02;16.23;;;12.80;;
19735;SDS011;32064;49.310;8.646;2022-12-10T08:30:28;16.60;;;13.57;;
19735;SDS011;32064;49.310;8.646;2022-12-10T08:32:54;17.87;;;13.47;;
19735;SDS011;32064;49.310;8.646;2022-12-10T08:35:20;21.57;;;14.17;;
19735;SDS011;32064;49.310;8.646;2022-12-10T08:37:45;19.30;;;14.07;;
19735;SDS011;32064;49.310;8.646;2022-12-10T08:40:10;29.07;;;13.87;;
19735;SDS011;32064;49.310;8.646;2022-12-10T08:42:36;65.63;;;18.20;;
19735;SDS011;32064;49.310;8.646;2022-12-10T08:45:01;31.27;;;15.53;;
19735;SDS011;32064;49.310;8.646;2022-12-10T08:47:27;37.53;;;15.63;;
19735;SDS011;32064;49.310;8.646;2022-12-10T08:49:53;34.50;;;15.53;;
19735;SDS011;32064;49.310;8.646;2022-12-10T08:52:18;17.30;;;13.27;;
19735;SDS011;32064;49.310;8.646;2022-12-10T08:54:43;14.87;;;12.70;;
19735;SDS011;32064;49.310;8.646;2022-12-10T08:57:09;15.80;;;13.27;;
19735;SDS011;32064;49.310;8.646;2022-12-10T08:59:34;14.57;;;11.97;;
19735;SDS011;32064;49.310;8.646;2022-12-10T09:02:00;16.47;;;13.40;;
19735;SDS011;32064;49.310;8.646;2022-12-10T09:04:25;14.77;;;12.63;;
19735;SDS011;32064;49.310;8.646;2022-12-10T09:06:51;16.93;;;13.00;;
19735;SDS011;32064;49.310;8.646;2022-12-10T09:09:17;15.63;;;12.47;;
19735;SDS011;32064;49.310;8.646;2022-12-10T09:11:43;16.60;;;11.97;;
19735;SDS011;32064;49.310;8.646;2022-12-10T09:14:10;14.53;;;12.23;;
19735;SDS011;32064;49.310;8.646;2022-12-10T09:16:36;14.97;;;12.27;;
19735;SDS011;32064;49.310;8.646;2022-12-10T09:19:04;14.70;;;11.57;;
19735;SDS011;32064;49.310;8.646;2022-12-10T09:21:30;14.17;;;12.23;;
19735;SDS011;32064;49.310;8.646;2022-12-10T09:23:56;16.10;;;12.57;;
19735;SDS011;32064;49.310;8.646;2022-12-10T09:26:22;17.23;;;12.27;;
19735;SDS011;32064;49.310;8.646;2022-12-10T09:28:48;14.93;;;13.33;;
19735;SDS011;32064;49.310;8.646;2022-12-10T09:31:15;14.40;;;11.33;;
19735;SDS011;32064;49.310;8.646;2022-12-10T09:33:41;24.23;;;13.27;;
19735;SDS011;32064;49.310;8.646;2022-12-10T09:36:08;33.70;;;14.43;;
19735;SDS011;32064;49.310;8.646;2022-12-10T09:38:35;15.20;;;11.67;;
19735;SDS011;32064;49.310;8.646;2022-12-10T09:41:03;17.73;;;12.83;;
19735;SDS011;32064;49.310;8.646;2022-12-10T09:46:26;15.80;;;12.83;;
19735;SDS011;32064;49.310;8.646;2022-12-10T09:51:59;14.83;;;13.23;;
19735;SDS011;32064;49.310;8.646;2022-12-10T09:54:30;14.87;;;12.83;;
19735;SDS011;32064;49.310;8.646;2022-12-10T09:56:58;15.77;;;12.97;;
19735;SDS011;32064;49.310;8.646;2022-12-10T09:59:32;16.67;;;13.67;;
19735;SDS011;32064;49.310;8.646;2022-12-10T10:02:13;15.70;;;11.77;;
19735;SDS011;32064;49.310;8.646;2022-12-10T10:04:46;13.27;;;11.73;;
19735;SDS011;32064;49.310;8.646;2022-12-10T10:07:30;14.77;;;12.73;;
19735;SDS011;32064;49.310;8.646;2022-12-10T10:09:59;14.60;;;12.47;;
19735;SDS011;32064;49.310;8.646;2022-12-10T10:12:28;14.70;;;12.90;;
19735;SDS011;32064;49.310;8.646;2022-12-10T10:14:56;17.50;;;14.27;;
19735;SDS011;32064;49.310;8.646;2022-12-10T10:17:33;15.80;;;13.03;;
19735;SDS011;32064;49.310;8.646;2022-12-10T10:20:01;17.17;;;13.33;;
19735;SDS011;32064;49.310;8.646;2022-12-10T10:22:26;17.63;;;14.43;;
19735;SDS011;32064;49.310;8.646;2022-12-10T10:24:52;15.43;;;12.73;;
19735;SDS011;32064;49.310;8.646;2022-12-10T10:27:22;17.00;;;13.00;;
19735;SDS011;32064;49.310;8.646;2022-12-10T10:29:52;18.27;;;13.03;;
19735;SDS011;32064;49.310;8.646;2022-12-10T10:32:43;20.07;;;14.70;;
19735;SDS011;32064;49.310;8.646;2022-12-10T10:37:52;18.90;;;13.07;;
19735;SDS011;32064;49.310;8.646;2022-12-10T10:40:33;16.60;;;13.13;;
19735;SDS011;32064;49.310;8.646;2022-12-10T10:43:06;16.23;;;12.77;;
19735;SDS011;32064;49.310;8.646;2022-12-10T10:45:39;15.83;;;13.97;;
19735;SDS011;32064;49.310;8.646;2022-12-10T10:48:11;14.67;;;12.40;;
19735;SDS011;32064;49.310;8.646;2022-12-10T10:50:40;15.17;;;12.83;;
19735;SDS011;32064;49.310;8.646;2022-12-10T10:55:51;15.00;;;12.63;;
19735;SDS011;32064;49.310;8.646;2022-12-10T10:58:19;15.93;;;12.73;;
19735;SDS011;32064;49.310;8.646;2022-12-10T11:00:57;14.10;;;12.17;;
19735;SDS011;32064;49.310;8.646;2022-12-10T11:03:25;14.27;;;11.90;;
19735;SDS011;32064;49.310;8.646;2022-12-10T11:05:52;15.13;;;12.17;;
19735;SDS011;32064;49.310;8.646;2022-12-10T11:08:19;18.43;;;12.37;;
19735;SDS011;32064;49.310;8.646;2022-12-10T11:10:49;16.10;;;11.33;;
19735;SDS011;32064;49.310;8.646;2022-12-10T11:13:23;16.27;;;12.13;;
19735;SDS011;32064;49.310;8.646;2022-12-10T11:15:59;14.10;;;11.23;;
19735;SDS011;32064;49.310;8.646;2022-12-10T11:18:33;13.73;;;11.80;;
19735;SDS011;32064;49.310;8.646;2022-12-10T11:21:15;13.73;;;11.73;;
19735;SDS011;32064;49.310;8.646;2022-12-10T11:23:48;13.20;;;11.27;;
19735;SDS011;32064;49.310;8.646;2022-12-10T11:26:39;17.20;;;11.80;;
19735;SDS011;32064;49.310;8.646;2022-12-10T11:37:38;13.80;;;10.93;;
19735;SDS011;32064;49.310;8.646;2022-12-10T11:40:20;13.00;;;10.87;;
19735;SDS011;32064;49.310;8.646;2022-12-10T11:42:55;11.90;;;10.00;;
19735;SDS011;32064;49.310;8.646;2022-12-10T11:45:44;15.33;;;12.10;;
19735;SDS011;32064;49.310;8.646;2022-12-10T11:51:43;12.93;;;10.37;;
19735;SDS011;32064;49.310;8.646;2022-12-10T12:00:20;11.87;;;10.53;;
19735;SDS011;32064;49.310;8.646;2022-12-10T12:08:23;14.23;;;10.93;;
19735;SDS011;32064;49.310;8.646;2022-12-10T12:10:54;12.00;;;10.70;;
19735;SDS011;32064;49.310;8.646;2022-12-10T12:13:26;12.87;;;9.90;;
19735;SDS011;32064;49.310;8.646;2022-12-10T12:16:34;11.60;;;10.33;;
19735;SDS011;32064;49.310;8.646;2022-12-10T12:19:05;13.10;;;10.13;;
19735;SDS011;32064;49.310;8.646;2022-12-10T12:21:38;12.17;;;9.90;;
19735;SDS011;32064;49.310;8.646;2022-12-10T12:24:09;11.67;;;10.03;;
19735;SDS011;32064;49.310;8.646;2022-12-10T12:27:02;12.23;;;10.17;;
19735;SDS011;32064;49.310;8.646;2022-12-10T12:29:41;14.37;;;10.20;;
19735;SDS011;32064;49.310;8.646;2022-12-10T12:32:23;11.43;;;10.00;;
19735;SDS011;32064;49.310;8.646;2022-12-10T12:34:53;10.53;;;9.40;;
19735;SDS011;32064;49.310;8.646;2022-12-10T12:37:28;11.37;;;9.73;;
19735;SDS011;32064;49.310;8.646;2022-12-10T12:40:13;11.40;;;9.77;;
19735;SDS011;32064;49.310;8.646;2022-12-10T12:46:04;10.70;;;9.60;;
19735;SDS011;32064;49.310;8.646;2022-12-10T12:48:40;10.83;;;9.50;;
19735;SDS011;32064;49.310;8.646;2022-12-10T12:51:27;11.30;;;9.07;;
19735;SDS011;32064;49.310;8.646;2022-12-10T12:53:57;10.80;;;9.30;;
19735;SDS011;32064;49.310;8.646;2022-12-10T12:59:51;10.37;;;8.63;;
19735;SDS011;32064;49.310;8.646;2022-12-10T13:04:59;9.60;;;8.53;;
19735;SDS011;32064;49.310;8.646;2022-12-10T13:10:07;10.23;;;8.53;;
19735;SDS011;32064;49.310;8.646;2022-12-10T13:12:47;9.73;;;8.73;;
19735;SDS011;32064;49.310;8.646;2022-12-10T13:15:21;9.93;;;8.43;;
19735;SDS011;32064;49.310;8.646;2022-12-10T13:18:03;9.80;;;7.87;;
19735;SDS011;32064;49.310;8.646;2022-12-10T13:24:05;11.40;;;8.63;;
19735;SDS011;32064;49.310;8.646;2022-12-10T13:26:35;10.50;;;9.23;;
19735;SDS011;32064;49.310;8.646;2022-12-10T13:31:42;10.57;;;8.87;;
19735;SDS011;32064;49.310;8.646;2022-12-10T13:34:23;9.57;;;8.57;;
19735;SDS011;32064;49.310;8.646;2022-12-10T13:57:45;9.23;;;8.17;;
19735;SDS011;32064;49.310;8.646;2022-12-10T14:00:22;9.47;;;8.17;;
19735;SDS011;32064;49.310;8.646;2022-12-10T14:05:52;10.17;;;8.20;;
19735;SDS011;32064;49.310;8.646;2022-12-10T14:08:28;9.93;;;8.63;;
19735;SDS011;32064;49.310;8.646;2022-12-10T14:10:56;11.33;;;8.90;;
19735;SDS011;32064;49.310;8.646;2022-12-10T14:13:31;9.50;;;8.50;;
19735;SDS011;32064;49.310;8.646;2022-12-10T14:16:01;9.20;;;7.60;;
19735;SDS011;32064;49.310;8.646;2022-12-10T14:18:30;9.30;;;8.40;;
19735;SDS011;32064;49.310;8.646;2022-12-10T14:20:56;9.13;;;8.23;;
19735;SDS011;32064;49.310;8.646;2022-12-10T14:23:29;9.83;;;8.40;;
19735;SDS011;32064;49.310;8.646;2022-12-10T14:26:04;9.37;;;7.93;;
19735;SDS011;32064;49.310;8.646;2022-12-10T14:28:37;10.67;;;8.00;;
19735;SDS011;32064;49.310;8.646;2022-12-10T14:31:05;9.03;;;7.97;;
19735;SDS011;32064;49.310;8.646;2022-12-10T14:33:36;10.10;;;7.60;;
19735;SDS011;32064;49.310;8.646;2022-12-10T14:36:02;8.87;;;7.70;;
19735;SDS011;32064;49.310;8.646;2022-12-10T14:38:30;12.30;;;8.33;;
19735;SDS011;32064;49.310;8.646;2022-12-10T14:40:57;9.10;;;8.20;;
19735;SDS011;32064;49.310;8.646;2022-12-10T14:43:26;8.50;;;7.50;;
19735;SDS011;32064;49.310;8.646;2022-12-10T14:46:02;9.10;;;8.03;;
19735;SDS011;32064;49.310;8.646;2022-12-10T14:48:28;8.97;;;7.90;;
19735;SDS011;32064;49.310;8.646;2022-12-10T14:50:56;8.77;;;7.87;;
19735;SDS011;32064;49.310;8.646;2022-12-10T14:53:28;8.93;;;8.00;;
19735;SDS011;32064;49.310;8.646;2022-12-10T14:55:55;9.53;;;8.20;;
19735;SDS011;32064;49.310;8.646;2022-12-10T14:58:30;9.17;;;7.70;;
19735;SDS011;32064;49.310;8.646;2022-12-10T15:01:03;9.10;;;7.97;;
19735;SDS011;32064;49.310;8.646;2022-12-10T15:03:30;9.87;;;8.20;;
19735;SDS011;32064;49.310;8.646;2022-12-10T15:06:01;9.10;;;7.87;;
19735;SDS011;32064;49.310;8.646;2022-12-10T15:08:32;10.23;;;8.00;;
19735;SDS011;32064;49.310;8.646;2022-12-10T15:10:58;8.23;;;7.33;;
19735;SDS011;32064;49.310;8.646;2022-12-10T15:15:58;9.50;;;7.77;;
19735;SDS011;32064;49.310;8.646;2022-12-10T15:18:36;10.50;;;8.90;;
19735;SDS011;32064;49.310;8.646;2022-12-10T15:21:10;10.23;;;8.87;;
19735;SDS011;32064;49.310;8.646;2022-12-10T15:23:39;11.87;;;9.17;;
19735;SDS011;32064;49.310;8.646;2022-12-10T15:28:43;9.40;;;8.20;;
19735;SDS011;32064;49.310;8.646;2022-12-10T15:31:10;10.07;;;8.60;;
19735;SDS011;32064;49.310;8.646;2022-12-10T15:33:49;10.23;;;8.40;;
19735;SDS011;32064;49.310;8.646;2022-12-10T15:37:04;10.13;;;8.23;;
19735;SDS011;32064;49.310;8.646;2022-12-10T15:39:30;10.97;;;8.93;;
19735;SDS011;32064;49.310;8.646;2022-12-10T15:42:03;10.50;;;8.83;;
19735;SDS011;32064;49.310;8.646;2022-12-10T15:47:08;10.00;;;8.70;;
19735;SDS011;32064;49.310;8.646;2022-12-10T15:49:38;10.63;;;8.87;;
19735;SDS011;32064;49.310;8.646;2022-12-10T15:52:03;10.47;;;9.20;;
19735;SDS011;32064;49.310;8.646;2022-12-10T15:54:34;10.73;;;9.10;;
19735;SDS011;32064;49.310;8.646;2022-12-10T15:57:15;11.37;;;9.37;;
19735;SDS011;32064;49.310;8.646;2022-12-10T15:59:43;15.43;;;10.33;;
19735;SDS011;32064;49.310;8.646;2022-12-10T16:02:24;10.90;;;9.77;;
19735;SDS011;32064;49.310;8.646;2022-12-10T16:04:51;10.67;;;9.27;;
19735;SDS011;32064;49.310;8.646;2022-12-10T16:07:16;11.03;;;9.63;;
19735;SDS011;32064;49.310;8.646;2022-12-10T16:09:43;11.60;;;9.70;;
19735;SDS011;32064;49.310;8.646;2022-12-10T16:12:15;11.20;;;9.37;;
19735;SDS011;32064;49.310;8.646;2022-12-10T16:14:42;12.37;;;9.83;;
19735;SDS011;32064;49.310;8.646;2022-12-10T16:17:13;11.87;;;9.93;;